createdAt,value
2019-01-12T00:02:15.777Z,100162.59
2019-01-12T00:04:43.749Z,100150.06
2019-01-12T00:07:11.379Z,100158.13
2019-01-12T00:09:39.273Z,100147.59
2019-01-12T00:12:07.250Z,100154.45
2019-01-12T00:14:34.884Z,100155.91
2019-01-12T00:17:02.515Z,100154.63
2019-01-12T00:19:30.148Z,100155.13
2019-01-12T00:21:58.170Z,100162.45
2019-01-12T00:24:31.484Z,100163.83
2019-01-12T00:26:56.619Z,100168.45
2019-01-12T00:29:24.571Z,100156.20
2019-01-12T00:31:52.206Z,100158.06
2019-01-12T00:34:20.101Z,100162.75
2019-01-12T00:36:47.739Z,100167.87
2019-01-12T00:39:15.629Z,100164.03
2019-01-12T00:41:43.615Z,100174.33
2019-01-12T00:44:11.246Z,100174.47
2019-01-12T00:46:39.234Z,100180.02
2019-01-12T00:49:06.858Z,100178.94
2019-01-12T00:51:34.764Z,100183.47
2019-01-12T00:54:02.729Z,100185.83
2019-01-12T00:56:30.698Z,100188.68
2019-01-12T00:58:58.337Z,100200.98
2019-01-12T01:01:26.232Z,100196.86
2019-01-12T01:03:54.201Z,100200.77
2019-01-12T01:06:21.840Z,100198.94
2019-01-12T01:08:49.732Z,100190.47
2019-01-12T01:11:17.704Z,100189.68
2019-01-12T01:13:45.667Z,100194.05
2019-01-12T01:16:13.636Z,100195.90
2019-01-12T01:18:41.267Z,100184.88
2019-01-12T01:21:09.174Z,100197.19
2019-01-12T01:23:37.138Z,100198.00
2019-01-12T01:26:04.783Z,100200.88
2019-01-12T01:28:32.667Z,100199.75
2019-01-12T01:31:00.655Z,100207.77
2019-01-12T01:33:28.300Z,100209.99
2019-01-12T01:35:56.267Z,100215.05
2019-01-12T01:38:23.892Z,100219.77
2019-01-12T01:40:51.804Z,100224.89
2019-01-12T01:43:19.769Z,100220.97
2019-01-12T01:45:47.739Z,100222.78
2019-01-12T01:48:15.703Z,100230.97
2019-01-12T01:50:43.353Z,100222.80
2019-01-12T01:53:11.236Z,100228.74
2019-01-12T01:55:38.875Z,100231.59
2019-01-12T01:58:08.197Z,100233.91
2019-01-12T02:00:36.169Z,100221.34
2019-01-12T02:03:03.805Z,100224.95
2019-01-12T02:05:31.702Z,100229.42
2019-01-12T02:07:59.690Z,100224.23
2019-01-12T02:10:27.638Z,100224.14
2019-01-12T02:12:55.611Z,100231.56
2019-01-12T02:15:23.237Z,100228.22
2019-01-12T02:17:51.138Z,100225.66
2019-01-12T02:20:19.108Z,100235.89
2019-01-12T02:22:47.094Z,100234.61
2019-01-12T02:25:15.051Z,100233.33
2019-01-12T02:27:43.015Z,100234.47
2019-01-12T02:30:10.647Z,100222.47
2019-01-12T02:32:38.564Z,100233.63
2019-01-12T02:35:06.549Z,100234.45
2019-01-12T02:37:34.250Z,100227.72
2019-01-12T02:40:01.871Z,100237.48
2019-01-12T02:42:29.808Z,100239.59
2019-01-12T02:44:57.785Z,100239.33
2019-01-12T02:47:25.767Z,100235.56
2019-01-12T02:49:53.719Z,100246.67
2019-01-12T02:52:21.688Z,100245.39
2019-01-12T02:54:49.652Z,100243.88
2019-01-12T02:57:17.623Z,100252.52
2019-01-12T02:59:45.595Z,100243.72
2019-01-12T03:02:13.569Z,100241.80
2019-01-12T03:04:41.538Z,100242.12
2019-01-12T03:07:09.505Z,100242.19
2019-01-12T03:09:37.140Z,100248.19
2019-01-12T03:12:05.033Z,100245.73
2019-01-12T03:14:33.007Z,100234.45
2019-01-12T03:17:00.976Z,100243.86
2019-01-12T03:19:28.615Z,100238.68
2019-01-12T03:21:56.608Z,100237.86
2019-01-12T03:24:24.575Z,100238.74
2019-01-12T03:26:52.217Z,100238.70
2019-01-12T03:29:20.105Z,100238.61
2019-01-12T03:31:48.099Z,100234.93
2019-01-12T03:34:16.018Z,100229.91
2019-01-12T03:36:43.654Z,100230.55
2019-01-12T03:39:11.580Z,100231.28
2019-01-12T03:41:39.219Z,100233.75
2019-01-12T03:44:07.106Z,100228.70
2019-01-12T03:46:35.074Z,100230.63
2019-01-12T03:49:03.046Z,100232.94
2019-01-12T03:51:31.016Z,100235.73
2019-01-12T03:53:58.639Z,100235.63
2019-01-12T03:56:26.544Z,100230.26
2019-01-12T03:58:54.529Z,100233.14
2019-01-12T04:01:22.480Z,100238.06
2019-01-12T04:03:50.421Z,100236.72
2019-01-12T04:06:18.326Z,100229.19
2019-01-12T04:08:46.290Z,100236.63
2019-01-12T04:11:14.257Z,100228.30
2019-01-12T04:13:42.222Z,100227.18
2019-01-12T04:16:10.200Z,100227.64
2019-01-12T04:18:38.164Z,100230.59
2019-01-12T04:21:05.805Z,100230.83
2019-01-12T04:23:33.436Z,100223.87
2019-01-12T04:26:01.359Z,100226.99
2019-01-12T04:28:28.999Z,100217.55
2019-01-12T04:30:56.908Z,100225.22
2019-01-12T04:33:24.542Z,100224.30
2019-01-12T04:35:53.038Z,100213.42
2019-01-12T04:38:21.000Z,100218.53
2019-01-12T04:40:48.628Z,100227.25
2019-01-12T04:43:16.533Z,100222.37
2019-01-12T04:45:44.503Z,100233.70
2019-01-12T04:48:12.467Z,100227.28
2019-01-12T04:50:40.441Z,100222.17
2019-01-12T04:53:08.416Z,100229.19
2019-01-12T04:55:42.021Z,100224.01
2019-01-12T04:58:09.998Z,100215.84
2019-01-12T05:00:38.277Z,100220.30
2019-01-12T05:03:06.228Z,100218.62
2019-01-12T05:05:33.873Z,100222.14
2019-01-12T05:08:02.064Z,100228.53
2019-01-12T05:10:29.697Z,100226.30
2019-01-12T05:12:57.338Z,100223.94
2019-01-12T05:15:24.974Z,100220.89
2019-01-12T05:17:52.923Z,100221.91
2019-01-12T05:20:20.889Z,100218.20
2019-01-12T05:22:48.528Z,100224.33
2019-01-12T05:25:16.159Z,100222.39
2019-01-12T05:27:44.088Z,100221.12
2019-01-12T05:30:12.052Z,100228.79
2019-01-12T05:32:39.687Z,100222.00
2019-01-12T05:35:07.317Z,100227.52
2019-01-12T05:37:35.247Z,100218.70
2019-01-12T05:40:03.213Z,100228.59
2019-01-12T05:42:30.855Z,100223.48
2019-01-12T05:44:58.740Z,100229.25
2019-01-12T05:47:26.708Z,100232.30
2019-01-12T05:49:54.359Z,100228.33
2019-01-12T05:52:22.245Z,100232.66
2019-01-12T05:54:49.887Z,100226.03
2019-01-12T05:57:17.876Z,100233.44
2019-01-12T05:59:45.860Z,100233.44
2019-01-12T06:02:13.496Z,100241.73
2019-01-12T06:04:41.472Z,100240.82
2019-01-12T06:07:09.445Z,100244.79
2019-01-12T06:09:37.416Z,100241.11
2019-01-12T06:12:05.378Z,100243.05
2019-01-12T06:14:33.367Z,100245.61
2019-01-12T06:17:01.343Z,100252.33
2019-01-12T06:19:29.293Z,100254.95
2019-01-12T06:21:57.268Z,100250.33
2019-01-12T06:24:25.239Z,100247.70
2019-01-12T06:26:53.112Z,100245.96
2019-01-12T06:29:20.752Z,100240.61
2019-01-12T06:31:48.728Z,100243.05
2019-01-12T06:34:16.370Z,100243.14
2019-01-12T06:36:43.995Z,100237.77
2019-01-12T06:39:11.631Z,100240.65
2019-01-12T06:41:39.267Z,100235.23
2019-01-12T06:44:06.902Z,100235.63
2019-01-12T06:46:34.803Z,100237.70
2019-01-12T06:49:02.782Z,100236.16
2019-01-12T06:51:30.744Z,100243.53
2019-01-12T06:53:58.386Z,100244.33
2019-01-12T06:56:26.280Z,100238.85
2019-01-12T06:58:54.243Z,100245.61
2019-01-12T07:01:21.878Z,100249.14
2019-01-12T07:03:49.512Z,100247.67
2019-01-12T07:06:17.435Z,100243.51
2019-01-12T07:08:45.406Z,100248.62
2019-01-12T07:11:13.896Z,100241.64
2019-01-12T07:13:41.857Z,100247.97
2019-01-12T07:16:09.849Z,100246.92
2019-01-12T07:18:37.797Z,100255.80
2019-01-12T07:21:05.429Z,100251.19
2019-01-12T07:23:33.327Z,100250.30
2019-01-12T07:26:00.955Z,100258.00
2019-01-12T07:28:28.857Z,100253.25
2019-01-12T07:30:56.823Z,100257.97
2019-01-12T07:33:24.795Z,100259.38
2019-01-12T07:35:52.769Z,100268.89
2019-01-12T07:38:20.732Z,100267.31
2019-01-12T07:40:48.702Z,100273.31
2019-01-12T07:43:16.680Z,100275.25
2019-01-12T07:45:44.646Z,100270.17
2019-01-12T07:48:12.610Z,100280.20
2019-01-12T07:50:40.560Z,100277.38
2019-01-12T07:53:08.448Z,100272.27
2019-01-12T07:55:36.424Z,100268.10
2019-01-12T07:58:04.068Z,100284.73
2019-01-12T08:00:32.054Z,100283.28
2019-01-12T08:03:00.020Z,100279.74
2019-01-12T08:05:27.992Z,100284.40
2019-01-12T08:07:55.977Z,100277.34
2019-01-12T08:10:23.589Z,100269.84
2019-01-12T08:12:51.218Z,100281.52
2019-01-12T08:15:19.151Z,100284.40
2019-01-12T08:17:47.122Z,100279.28
2019-01-12T08:20:15.090Z,100288.07
2019-01-12T08:22:43.063Z,100283.91
2019-01-12T08:25:11.040Z,100286.30
2019-01-12T08:27:38.999Z,100278.53
2019-01-12T08:30:06.965Z,100277.74
2019-01-12T08:32:34.605Z,100278.46
2019-01-12T08:35:02.518Z,100280.73
2019-01-12T08:37:30.139Z,100268.89
2019-01-12T08:39:58.029Z,100264.30
2019-01-12T08:42:27.140Z,100263.74
2019-01-12T08:44:54.824Z,100262.86
2019-01-12T08:47:22.760Z,100265.81
2019-01-12T08:49:50.726Z,100265.58
2019-01-12T08:52:18.361Z,100256.82
2019-01-12T08:54:46.364Z,100262.88
2019-01-12T08:57:14.329Z,100258.75
2019-01-12T08:59:42.320Z,100252.03
2019-01-12T09:02:10.264Z,100253.01
2019-01-12T09:04:43.438Z,100254.94
2019-01-12T09:07:07.565Z,100249.49
2019-01-12T09:09:35.509Z,100249.08
2019-01-12T09:12:03.476Z,100242.31
2019-01-12T09:14:31.504Z,100246.47
2019-01-12T09:16:59.421Z,100237.34
2019-01-12T09:19:27.389Z,100240.55
2019-01-12T09:21:55.355Z,100238.00
2019-01-12T09:24:22.993Z,100234.02
2019-01-12T09:26:50.887Z,100233.23
2019-01-12T09:29:18.857Z,100220.44
2019-01-12T09:31:46.828Z,100215.31
2019-01-12T09:34:14.798Z,100220.45
2019-01-12T09:36:42.814Z,100221.78
2019-01-12T09:39:10.737Z,100222.27
2019-01-12T09:41:38.708Z,100212.13
2019-01-12T09:44:06.670Z,100209.38
2019-01-12T09:46:34.299Z,100200.03
2019-01-12T09:49:02.309Z,100195.48
2019-01-12T09:51:29.947Z,100198.98
2019-01-12T09:53:58.256Z,100197.08
2019-01-12T09:56:25.929Z,100195.64
2019-01-12T09:58:53.590Z,100185.02
2019-01-12T10:01:21.227Z,100182.52
2019-01-12T10:03:48.877Z,100180.77
2019-01-12T10:06:16.759Z,100175.00
2019-01-12T10:08:44.734Z,100165.95
2019-01-12T10:11:12.699Z,100160.27
2019-01-12T10:13:40.674Z,100160.07
2019-01-12T10:16:08.642Z,100163.73
2019-01-12T10:18:36.678Z,100154.19
2019-01-12T10:21:04.507Z,100145.08
2019-01-12T10:23:32.446Z,100149.09
2019-01-12T10:26:00.413Z,100144.28
2019-01-12T10:28:28.390Z,100138.84
2019-01-12T10:30:56.457Z,100134.68
2019-01-12T10:33:24.089Z,100138.87
2019-01-12T10:35:51.722Z,100131.84
2019-01-12T10:38:19.353Z,100130.55
2019-01-12T10:40:47.321Z,100125.84
2019-01-12T10:43:15.280Z,100131.46
2019-01-12T10:45:43.250Z,100117.67
2019-01-12T10:48:11.528Z,100129.76
2019-01-12T10:50:40.048Z,100130.34
2019-01-12T10:53:07.762Z,100120.16
2019-01-12T10:55:39.432Z,100120.25
2019-01-12T10:58:07.421Z,100111.41
2019-01-12T11:00:35.055Z,100111.94
2019-01-12T11:03:03.035Z,100105.03
2019-01-12T11:05:30.676Z,100106.31
2019-01-12T11:07:58.317Z,100104.63
2019-01-12T11:10:25.951Z,100098.80
2019-01-12T11:12:53.883Z,100103.78
2019-01-12T11:15:21.853Z,100095.26
2019-01-12T11:17:49.493Z,100096.16
2019-01-12T11:20:17.384Z,100084.17
2019-01-12T11:22:45.357Z,100082.75
2019-01-12T11:25:13.323Z,100077.80
2019-01-12T11:27:41.296Z,100078.42
2019-01-12T11:30:09.102Z,100078.59
2019-01-12T11:32:37.357Z,100069.31
2019-01-12T11:35:05.314Z,100060.08
2019-01-12T11:37:33.274Z,100060.08
2019-01-12T11:40:00.909Z,100052.75
2019-01-12T11:42:28.810Z,100057.21
2019-01-12T11:44:56.781Z,100041.08
2019-01-12T11:47:24.406Z,100043.23
2019-01-12T11:49:52.304Z,100041.08
2019-01-12T11:52:20.273Z,100031.57
2019-01-12T11:54:48.247Z,100028.64
2019-01-12T11:57:19.364Z,100015.82
2019-01-12T11:59:45.512Z,100012.31
2019-01-12T12:02:13.377Z,100012.23
2019-01-12T12:04:41.013Z,100015.15
2019-01-12T12:07:08.635Z,100009.35
2019-01-12T12:09:36.575Z,100009.06
2019-01-12T12:12:04.542Z,100004.28
2019-01-12T12:14:32.512Z,99997.68
2019-01-12T12:17:00.480Z,99984.91
2019-01-12T12:19:28.092Z,99984.91
2019-01-12T12:21:56.009Z,99976.81
2019-01-12T12:24:23.878Z,99967.81
2019-01-12T12:26:51.868Z,99968.97
2019-01-12T12:29:19.488Z,99958.92
2019-01-12T12:31:47.115Z,99953.98
2019-01-12T12:34:14.743Z,99951.02
2019-01-12T12:36:42.804Z,99941.94
2019-01-12T12:39:10.775Z,99939.75
2019-01-12T12:41:38.408Z,99933.95
2019-01-12T12:44:06.304Z,99937.67
2019-01-12T12:46:34.269Z,99933.28
2019-01-12T12:49:02.244Z,99932.94
2019-01-12T12:51:29.870Z,99939.07
2019-01-12T12:53:57.786Z,99940.72
2019-01-12T12:56:25.410Z,99928.66
2019-01-12T12:58:53.315Z,99928.66
2019-01-12T13:01:21.269Z,99916.73
2019-01-12T13:03:49.241Z,99917.39
2019-01-12T13:06:17.214Z,99910.08
2019-01-12T13:08:48.569Z,99909.99
2019-01-12T13:11:14.623Z,99899.95
2019-01-12T13:13:42.556Z,99890.69
2019-01-12T13:16:10.523Z,99888.28
2019-01-12T13:18:38.509Z,99879.63
2019-01-12T13:21:06.791Z,99880.91
2019-01-12T13:23:34.402Z,99888.02
2019-01-12T13:26:02.712Z,99877.27
2019-01-12T13:28:30.332Z,99883.06
2019-01-12T13:30:58.028Z,99880.58
2019-01-12T13:33:25.911Z,99878.73
2019-01-12T13:35:53.529Z,99870.03
2019-01-12T13:38:21.433Z,99877.67
2019-01-12T13:40:49.065Z,99855.49
2019-01-12T13:43:16.690Z,99847.85
2019-01-12T13:45:44.619Z,99841.05
2019-01-12T13:48:12.590Z,99827.63
2019-01-12T13:50:40.216Z,99823.58
2019-01-12T13:53:07.842Z,99815.56
2019-01-12T13:55:36.110Z,99803.08
2019-01-12T13:58:03.721Z,99809.00
2019-01-12T14:00:31.619Z,99809.20
2019-01-12T14:02:59.258Z,99803.43
2019-01-12T14:05:27.175Z,99809.44
2019-01-12T14:07:56.435Z,99794.73
2019-01-12T14:10:24.626Z,99809.36
2019-01-12T14:12:52.599Z,99803.83
2019-01-12T14:15:20.568Z,99797.91
2019-01-12T14:17:48.200Z,99796.19
2019-01-12T14:20:15.826Z,99786.30
2019-01-12T14:22:43.765Z,99789.59
2019-01-12T14:25:11.727Z,99787.63
2019-01-12T14:27:39.714Z,99786.83
2019-01-12T14:30:07.354Z,99778.66
2019-01-12T14:32:35.338Z,99784.75
2019-01-12T14:35:03.298Z,99788.11
2019-01-12T14:37:30.929Z,99782.25
2019-01-12T14:39:58.551Z,99783.78
2019-01-12T14:42:26.490Z,99777.73
2019-01-12T14:44:54.110Z,99764.44
2019-01-12T14:47:21.738Z,99768.29
2019-01-12T14:49:49.357Z,99757.64
2019-01-12T14:52:17.348Z,99749.14
2019-01-12T14:54:45.314Z,99748.79
2019-01-12T14:57:13.301Z,99744.50
2019-01-12T14:59:40.951Z,99743.06
2019-01-12T15:02:08.832Z,99740.58
2019-01-12T15:04:36.464Z,99736.33
2019-01-12T15:07:04.072Z,99731.33
2019-01-12T15:09:32.006Z,99725.56
2019-01-12T15:11:59.997Z,99725.08
2019-01-12T15:14:27.946Z,99721.03
2019-01-12T15:16:55.917Z,99709.78
2019-01-12T15:19:23.891Z,99724.80
2019-01-12T15:21:51.859Z,99718.95
2019-01-12T15:24:19.842Z,99707.27
2019-01-12T15:26:47.806Z,99703.05
2019-01-12T15:29:15.414Z,99705.45
2019-01-12T15:31:43.320Z,99704.10
2019-01-12T15:34:11.289Z,99710.47
2019-01-12T15:36:39.262Z,99703.45
2019-01-12T15:39:07.333Z,99703.20
2019-01-12T15:41:35.304Z,99697.05
2019-01-12T15:44:02.926Z,99693.15
2019-01-12T15:46:30.551Z,99692.54
2019-01-12T15:48:58.175Z,99674.88
2019-01-12T15:51:26.055Z,99696.41
2019-01-12T15:53:54.021Z,99687.33
2019-01-12T15:56:22.018Z,99688.70
2019-01-12T15:58:49.644Z,99685.96
2019-01-12T16:01:17.278Z,99671.06
2019-01-12T16:03:44.927Z,99670.84
2019-01-12T16:06:12.865Z,99670.72
2019-01-12T16:08:40.512Z,99667.41
2019-01-12T16:11:08.134Z,99659.13
2019-01-12T16:13:36.048Z,99665.03
2019-01-12T16:16:04.035Z,99656.08
2019-01-12T16:18:31.664Z,99648.99
2019-01-12T16:20:59.283Z,99646.87
2019-01-12T16:23:26.915Z,99641.80
2019-01-12T16:25:54.548Z,99643.00
2019-01-12T16:28:23.325Z,99633.16
2019-01-12T16:30:51.161Z,99629.63
2019-01-12T16:33:19.079Z,99620.41
2019-01-12T16:35:47.051Z,99620.09
2019-01-12T16:38:15.015Z,99618.95
2019-01-12T16:40:42.884Z,99611.65
2019-01-12T16:43:10.858Z,99615.30
2019-01-12T16:45:38.826Z,99598.17
2019-01-12T16:48:06.457Z,99600.38
2019-01-12T16:50:34.357Z,99581.11
2019-01-12T16:53:02.327Z,99587.67
2019-01-12T16:55:30.294Z,99584.84
2019-01-12T16:57:58.261Z,99576.69
2019-01-12T17:00:26.129Z,99570.38
2019-01-12T17:02:54.101Z,99561.67
2019-01-12T17:05:22.069Z,99559.52
2019-01-12T17:07:49.696Z,99553.41
2019-01-12T17:10:17.600Z,99546.65
2019-01-12T17:12:45.571Z,99540.53
2019-01-12T17:15:13.537Z,99535.62
2019-01-12T17:17:41.530Z,99532.05
2019-01-12T17:20:09.156Z,99526.59
2019-01-12T17:22:36.796Z,99523.22
2019-01-12T17:25:04.518Z,99512.98
2019-01-12T17:27:32.466Z,99525.22
2019-01-12T17:30:00.436Z,99512.62
2019-01-12T17:32:28.079Z,99501.22
2019-01-12T17:34:55.685Z,99492.54
2019-01-12T17:37:23.317Z,99484.86
2019-01-12T17:39:51.191Z,99482.94
2019-01-12T17:42:18.835Z,99483.30
2019-01-12T17:44:46.718Z,99470.70
2019-01-12T17:47:14.341Z,99473.47
2019-01-12T17:49:41.971Z,99475.94
2019-01-12T17:52:09.597Z,99475.55
2019-01-12T17:54:37.221Z,99478.38
2019-01-12T17:57:04.841Z,99464.61
2019-01-12T17:59:32.796Z,99475.42
2019-01-12T18:02:00.784Z,99460.56
2019-01-12T18:04:28.733Z,99466.08
2019-01-12T18:06:56.706Z,99453.49
2019-01-12T18:09:24.343Z,99468.25
2019-01-12T18:11:51.957Z,99448.42
2019-01-12T18:14:19.585Z,99450.22
2019-01-12T18:16:47.203Z,99455.41
2019-01-12T18:19:15.116Z,99464.66
2019-01-12T18:21:43.085Z,99464.66
2019-01-12T18:24:10.710Z,99462.49
2019-01-12T18:26:38.617Z,99454.53
2019-01-12T18:29:06.246Z,99457.02
2019-01-12T18:31:34.147Z,99436.74
2019-01-12T18:34:02.115Z,99447.78
2019-01-12T18:36:30.397Z,99449.82
2019-01-12T18:38:58.038Z,99448.42
2019-01-12T18:41:25.731Z,99441.34
2019-01-12T18:43:53.689Z,99430.39
2019-01-12T18:46:21.304Z,99439.18
2019-01-12T18:48:49.232Z,99432.86
2019-01-12T18:51:16.923Z,99424.92
2019-01-12T18:53:44.625Z,99427.95
2019-01-12T18:56:12.508Z,99423.71
2019-01-12T18:58:40.140Z,99424.98
2019-01-12T19:01:07.760Z,99423.99
2019-01-12T19:03:35.707Z,99424.11
2019-01-12T19:06:03.684Z,99421.59
2019-01-12T19:08:31.301Z,99421.27
2019-01-12T19:10:59.227Z,99414.68
2019-01-12T19:13:27.176Z,99410.92
2019-01-12T19:15:54.789Z,99416.27
2019-01-12T19:18:22.701Z,99405.23
2019-01-12T19:20:50.879Z,99405.46
2019-01-12T19:23:18.848Z,99411.36
2019-01-12T19:25:46.817Z,99406.81
2019-01-12T19:28:14.784Z,99411.76
2019-01-12T19:30:42.448Z,99410.03
2019-01-12T19:33:10.419Z,99415.77
2019-01-12T19:35:38.392Z,99414.86
2019-01-12T19:38:06.680Z,99414.49
2019-01-12T19:40:34.631Z,99417.16
2019-01-12T19:43:02.253Z,99419.40
2019-01-12T19:45:30.161Z,99409.64
2019-01-12T19:47:58.134Z,99417.22
2019-01-12T19:50:26.103Z,99413.48
2019-01-12T19:52:54.075Z,99410.45
2019-01-12T19:55:22.042Z,99413.30
2019-01-12T19:57:50.020Z,99415.09
2019-01-12T20:00:17.985Z,99404.86
2019-01-12T20:02:45.607Z,99420.29
2019-01-12T20:05:13.509Z,99420.17
2019-01-12T20:07:41.488Z,99419.88
2019-01-12T20:10:09.194Z,99419.03
2019-01-12T20:12:36.823Z,99416.08
2019-01-12T20:15:04.444Z,99420.56
2019-01-12T20:17:32.335Z,99404.52
2019-01-12T20:20:00.305Z,99405.65
2019-01-12T20:22:28.274Z,99406.72
2019-01-12T20:24:55.913Z,99398.96
2019-01-12T20:27:23.807Z,99395.77
2019-01-12T20:29:51.778Z,99399.98
2019-01-12T20:32:19.751Z,99392.42
2019-01-12T20:34:47.712Z,99404.42
2019-01-12T20:37:15.701Z,99393.23
2019-01-12T20:39:43.333Z,99395.31
2019-01-12T20:42:11.317Z,99397.54
2019-01-12T20:44:38.955Z,99391.94
2019-01-12T20:47:06.573Z,99374.31
2019-01-12T20:49:34.510Z,99369.12
2019-01-12T20:52:02.483Z,99378.55
2019-01-12T20:54:30.447Z,99364.47
2019-01-12T20:56:58.421Z,99365.39
2019-01-12T20:59:28.314Z,99359.28
2019-01-12T21:01:55.686Z,99352.89
2019-01-12T21:04:23.325Z,99364.98
2019-01-12T21:06:51.213Z,99366.34
2019-01-12T21:09:19.196Z,99359.94
2019-01-12T21:11:46.820Z,99371.09
2019-01-12T21:14:14.711Z,99353.44
2019-01-12T21:16:42.686Z,99360.52
2019-01-12T21:19:10.654Z,99353.98
2019-01-12T21:21:38.269Z,99338.03
2019-01-12T21:24:06.189Z,99339.13
2019-01-12T21:26:34.151Z,99336.64
2019-01-12T21:29:02.122Z,99337.23
2019-01-12T21:31:30.100Z,99328.75
2019-01-12T21:33:57.718Z,99321.88
2019-01-12T21:36:25.621Z,99326.08
2019-01-12T21:38:53.239Z,99323.05
2019-01-12T21:41:21.154Z,99325.24
2019-01-12T21:43:49.121Z,99326.12
2019-01-12T21:46:16.760Z,99322.50
2019-01-12T21:48:44.378Z,99324.14
2019-01-12T21:51:12.312Z,99308.39
2019-01-12T21:53:40.291Z,99316.53
2019-01-12T21:56:07.920Z,99314.89
2019-01-12T21:58:35.540Z,99310.58
2019-01-12T22:01:03.188Z,99301.77
2019-01-12T22:03:31.153Z,99302.69
2019-01-12T22:05:59.108Z,99299.84
2019-01-12T22:08:27.080Z,99303.49
2019-01-12T22:10:55.051Z,99298.85
2019-01-12T22:13:22.668Z,99302.00
2019-01-12T22:15:50.297Z,99303.56
2019-01-12T22:18:18.237Z,99294.53
2019-01-12T22:20:46.207Z,99307.92
2019-01-12T22:23:13.823Z,99309.20
2019-01-12T22:25:41.742Z,99293.66
2019-01-12T22:28:09.686Z,99287.00
2019-01-12T22:30:37.580Z,99293.04
2019-01-12T22:33:05.854Z,99296.41
2019-01-12T22:35:33.821Z,99295.13
2019-01-12T22:38:01.792Z,99291.98
2019-01-12T22:40:29.757Z,99288.98
2019-01-12T22:42:57.730Z,99293.91
2019-01-12T22:45:25.698Z,99297.67
2019-01-12T22:47:53.319Z,99294.13
2019-01-12T22:50:20.951Z,99291.80
2019-01-12T22:52:48.572Z,99284.89
2019-01-12T22:55:16.457Z,99290.81
2019-01-12T22:57:44.077Z,99278.97
2019-01-12T23:00:11.706Z,99277.47
2019-01-12T23:02:39.643Z,99275.71
2019-01-12T23:05:07.268Z,99276.59
2019-01-12T23:07:35.172Z,99280.02
2019-01-12T23:10:03.143Z,99275.93
2019-01-12T23:12:31.113Z,99284.01
2019-01-12T23:14:59.081Z,99289.42
2019-01-12T23:17:27.075Z,99282.44
2019-01-12T23:19:54.701Z,99281.12
2019-01-12T23:22:22.339Z,99276.63
2019-01-12T23:24:49.956Z,99279.30
2019-01-12T23:27:17.904Z,99278.20
2019-01-12T23:29:45.524Z,99282.11
2019-01-12T23:32:13.439Z,99274.25
2019-01-12T23:34:41.067Z,99274.87
2019-01-12T23:37:08.966Z,99273.11
2019-01-12T23:39:36.938Z,99279.41
2019-01-12T23:42:04.906Z,99280.23
2019-01-12T23:44:32.891Z,99278.59
2019-01-12T23:47:00.517Z,99277.43
2019-01-12T23:49:28.402Z,99278.48
2019-01-12T23:51:56.103Z,99282.03
2019-01-12T23:54:23.722Z,99273.38
2019-01-12T23:56:51.699Z,99275.82
2019-01-12T23:59:19.667Z,99272.09
